sensor_id;sensor_type;location;lat;lon;timestamp;temperature;humidity
9385;DHT22;4732;49.340;10.886;2023-05-17T03:01:19;5.50;99.90
9385;DHT22;4732;49.340;10.886;2023-05-17T03:03:45;5.50;99.90
9385;DHT22;4732;49.340;10.886;2023-05-17T03:06:11;5.50;99.90
9385;DHT22;4732;49.340;10.886;2023-05-17T03:08:36;5.40;99.90
9385;DHT22;4732;49.340;10.886;2023-05-17T03:11:02;5.40;99.90
9385;DHT22;4732;49.340;10.886;2023-05-17T03:13:28;5.40;99.90
9385;DHT22;4732;49.340;10.886;2023-05-17T03:15:53;5.40;99.90
9385;DHT22;4732;49.340;10.886;2023-05-17T03:18:19;5.20;99.90
9385;DHT22;4732;49.340;10.886;2023-05-17T03:20:44;5.20;99.90
9385;DHT22;4732;49.340;10.886;2023-05-17T03:23:10;5.20;99.90
9385;DHT22;4732;49.340;10.886;2023-05-17T03:25:35;5.10;99.90
9385;DHT22;4732;49.340;10.886;2023-05-17T03:28:01;5.10;99.90
9385;DHT22;4732;49.340;10.886;2023-05-17T03:30:26;5.00;99.90
9385;DHT22;4732;49.340;10.886;2023-05-17T03:32:52;5.00;99.90
9385;DHT22;4732;49.340;10.886;2023-05-17T03:35:17;5.00;99.90
9385;DHT22;4732;49.340;10.886;2023-05-17T03:37:43;5.00;99.90
9385;DHT22;4732;49.340;10.886;2023-05-17T03:40:09;4.90;99.90
9385;DHT22;4732;49.340;10.886;2023-05-17T03:42:34;4.70;99.90
9385;DHT22;4732;49.340;10.886;2023-05-17T03:45:01;4.60;99.90
9385;DHT22;4732;49.340;10.886;2023-05-17T03:47:26;4.80;99.90
9385;DHT22;4732;49.340;10.886;2023-05-17T03:49:52;4.90;99.90
9385;DHT22;4732;49.340;10.886;2023-05-17T03:52:17;4.90;99.90
9385;DHT22;4732;49.340;10.886;2023-05-17T03:54:43;4.90;99.90
9385;DHT22;4732;49.340;10.886;2023-05-17T03:57:08;4.90;99.90
9385;DHT22;4732;49.340;10.886;2023-05-17T03:59:34;5.00;99.90
9385;DHT22;4732;49.340;10.886;2023-05-17T04:02:00;5.10;99.90
9385;DHT22;4732;49.340;10.886;2023-05-17T04:04:25;5.10;99.90
9385;DHT22;4732;49.340;10.886;2023-05-17T04:06:51;5.10;99.90
9385;DHT22;4732;49.340;10.886;2023-05-17T04:09:16;5.00;99.90
9385;DHT22;4732;49.340;10.886;2023-05-17T04:11:42;5.10;99.90
9385;DHT22;4732;49.340;10.886;2023-05-17T04:14:08;5.00;99.90
9385;DHT22;4732;49.340;10.886;2023-05-17T04:16:33;5.10;99.90
9385;DHT22;4732;49.340;10.886;2023-05-17T04:18:59;5.10;99.90
9385;DHT22;4732;49.340;10.886;2023-05-17T04:21:25;5.20;99.90
9385;DHT22;4732;49.340;10.886;2023-05-17T04:23:51;5.30;99.90
9385;DHT22;4732;49.340;10.886;2023-05-17T04:26:17;5.40;99.90
9385;DHT22;4732;49.340;10.886;2023-05-17T04:28:43;5.60;99.90
9385;DHT22;4732;49.340;10.886;2023-05-17T04:31:08;5.70;99.90
9385;DHT22;4732;49.340;10.886;2023-05-17T04:33:35;5.90;99.90
9385;DHT22;4732;49.340;10.886;2023-05-17T04:36:01;6.00;99.90
9385;DHT22;4732;49.340;10.886;2023-05-17T04:38:27;6.10;99.90
9385;DHT22;4732;49.340;10.886;2023-05-17T04:40:52;6.10;99.90
9385;DHT22;4732;49.340;10.886;2023-05-17T04:43:18;6.20;99.90
9385;DHT22;4732;49.340;10.886;2023-05-17T04:45:43;6.30;99.90
9385;DHT22;4732;49.340;10.886;2023-05-17T04:48:09;6.30;99.90
9385;DHT22;4732;49.340;10.886;2023-05-17T04:50:35;6.30;99.90
9385;DHT22;4732;49.340;10.886;2023-05-17T04:53:00;6.40;99.90
9385;DHT22;4732;49.340;10.886;2023-05-17T04:55:26;6.40;99.90
9385;DHT22;4732;49.340;10.886;2023-05-17T04:57:51;6.50;99.90
9385;DHT22;4732;49.340;10.886;2023-05-17T05:00:17;6.60;99.90
9385;DHT22;4732;49.340;10.886;2023-05-17T05:02:43;6.70;99.90
9385;DHT22;4732;49.340;10.886;2023-05-17T05:05:09;6.70;99.90
9385;DHT22;4732;49.340;10.886;2023-05-17T05:07:35;6.80;99.90
9385;DHT22;4732;49.340;10.886;2023-05-17T05:10:00;6.80;99.90
9385;DHT22;4732;49.340;10.886;2023-05-17T05:12:26;6.80;99.90
9385;DHT22;4732;49.340;10.886;2023-05-17T05:14:51;6.90;99.90
9385;DHT22;4732;49.340;10.886;2023-05-17T05:17:17;6.90;99.90
9385;DHT22;4732;49.340;10.886;2023-05-17T05:19:43;6.90;99.90
9385;DHT22;4732;49.340;10.886;2023-05-17T05:22:08;7.00;99.90
9385;DHT22;4732;49.340;10.886;2023-05-17T05:24:34;7.10;99.90
9385;DHT22;4732;49.340;10.886;2023-05-17T05:26:59;7.10;99.90
9385;DHT22;4732;49.340;10.886;2023-05-17T05:29:25;7.20;99.90
9385;DHT22;4732;49.340;10.886;2023-05-17T05:31:50;7.30;99.90
9385;DHT22;4732;49.340;10.886;2023-05-17T05:34:16;7.30;99.90
9385;DHT22;4732;49.340;10.886;2023-05-17T05:36:41;7.50;99.90
9385;DHT22;4732;49.340;10.886;2023-05-17T05:39:07;7.50;99.90
9385;DHT22;4732;49.340;10.886;2023-05-17T05:41:32;7.60;99.90
9385;DHT22;4732;49.340;10.886;2023-05-17T05:43:58;7.60;99.90
9385;DHT22;4732;49.340;10.886;2023-05-17T05:46:25;7.70;99.90
9385;DHT22;4732;49.340;10.886;2023-05-17T05:48:51;7.80;99.90
9385;DHT22;4732;49.340;10.886;2023-05-17T05:51:16;7.80;99.90
9385;DHT22;4732;49.340;10.886;2023-05-17T05:53:43;7.80;99.90
9385;DHT22;4732;49.340;10.886;2023-05-17T05:56:09;7.90;99.90
9385;DHT22;4732;49.340;10.886;2023-05-17T05:58:35;7.90;99.90
9385;DHT22;4732;49.340;10.886;2023-05-17T06:01:00;8.10;99.90
9385;DHT22;4732;49.340;10.886;2023-05-17T06:03:26;8.20;99.90
9385;DHT22;4732;49.340;10.886;2023-05-17T06:05:51;8.20;99.90
9385;DHT22;4732;49.340;10.886;2023-05-17T06:08:17;8.30;99.90
9385;DHT22;4732;49.340;10.886;2023-05-17T06:10:42;8.30;99.90
9385;DHT22;4732;49.340;10.886;2023-05-17T06:13:08;8.30;99.90
9385;DHT22;4732;49.340;10.886;2023-05-17T06:15:34;8.40;99.90
9385;DHT22;4732;49.340;10.886;2023-05-17T06:18:00;8.50;99.90
9385;DHT22;4732;49.340;10.886;2023-05-17T06:20:25;8.50;99.90
9385;DHT22;4732;49.340;10.886;2023-05-17T06:22:51;8.50;99.90
9385;DHT22;4732;49.340;10.886;2023-05-17T06:25:16;8.50;99.90
9385;DHT22;4732;49.340;10.886;2023-05-17T06:27:42;8.50;99.90
9385;DHT22;4732;49.340;10.886;2023-05-17T06:30:08;8.60;99.90
9385;DHT22;4732;49.340;10.886;2023-05-17T06:32:35;8.70;99.90
9385;DHT22;4732;49.340;10.886;2023-05-17T06:35:00;8.70;99.90
9385;DHT22;4732;49.340;10.886;2023-05-17T06:37:26;8.80;99.90
9385;DHT22;4732;49.340;10.886;2023-05-17T06:39:51;8.80;99.90
9385;DHT22;4732;49.340;10.886;2023-05-17T06:42:17;8.80;99.90
9385;DHT22;4732;49.340;10.886;2023-05-17T06:44:43;8.90;99.90
9385;DHT22;4732;49.340;10.886;2023-05-17T06:47:08;8.90;99.90
9385;DHT22;4732;49.340;10.886;2023-05-17T06:49:34;9.00;99.90
9385;DHT22;4732;49.340;10.886;2023-05-17T06:51:59;9.00;99.90
9385;DHT22;4732;49.340;10.886;2023-05-17T06:54:28;9.00;99.90
9385;DHT22;4732;49.340;10.886;2023-05-17T06:57:00;9.10;99.90
9385;DHT22;4732;49.340;10.886;2023-05-17T06:59:26;9.20;99.90
9385;DHT22;4732;49.340;10.886;2023-05-17T07:01:52;9.30;99.90
9385;DHT22;4732;49.340;10.886;2023-05-17T07:04:17;9.30;99.90
9385;DHT22;4732;49.340;10.886;2023-05-17T07:06:43;9.30;99.90
9385;DHT22;4732;49.340;10.886;2023-05-17T07:09:08;9.30;99.90
9385;DHT22;4732;49.340;10.886;2023-05-17T07:11:34;9.40;99.90
9385;DHT22;4732;49.340;10.886;2023-05-17T07:14:00;9.50;99.90
9385;DHT22;4732;49.340;10.886;2023-05-17T07:16:25;9.60;99.90
9385;DHT22;4732;49.340;10.886;2023-05-17T07:18:51;9.60;99.90
9385;DHT22;4732;49.340;10.886;2023-05-17T07:21:16;9.50;99.90
9385;DHT22;4732;49.340;10.886;2023-05-17T07:23:42;9.40;99.90
9385;DHT22;4732;49.340;10.886;2023-05-17T07:26:07;9.40;99.90
9385;DHT22;4732;49.340;10.886;2023-05-17T07:28:33;9.40;99.90
9385;DHT22;4732;49.340;10.886;2023-05-17T07:30:58;9.40;99.90
9385;DHT22;4732;49.340;10.886;2023-05-17T07:33:24;9.40;99.90
9385;DHT22;4732;49.340;10.886;2023-05-17T07:35:49;9.50;99.90
9385;DHT22;4732;49.340;10.886;2023-05-17T07:38:15;9.40;99.90
9385;DHT22;4732;49.340;10.886;2023-05-17T07:40:41;9.40;99.90
9385;DHT22;4732;49.340;10.886;2023-05-17T07:43:06;9.30;99.90
9385;DHT22;4732;49.340;10.886;2023-05-17T07:45:32;9.30;99.90
9385;DHT22;4732;49.340;10.886;2023-05-17T07:47:57;9.40;99.90
9385;DHT22;4732;49.340;10.886;2023-05-17T07:50:23;9.50;99.90
9385;DHT22;4732;49.340;10.886;2023-05-17T07:52:48;9.60;99.90
9385;DHT22;4732;49.340;10.886;2023-05-17T07:55:14;9.60;99.90
9385;DHT22;4732;49.340;10.886;2023-05-17T07:57:39;9.60;99.90
9385;DHT22;4732;49.340;10.886;2023-05-17T08:00:05;9.60;99.90
9385;DHT22;4732;49.340;10.886;2023-05-17T08:02:33;9.60;99.90
9385;DHT22;4732;49.340;10.886;2023-05-17T08:04:58;9.60;99.90
9385;DHT22;4732;49.340;10.886;2023-05-17T08:07:24;9.70;99.90
9385;DHT22;4732;49.340;10.886;2023-05-17T08:09:49;9.70;99.90
9385;DHT22;4732;49.340;10.886;2023-05-17T08:12:15;9.80;99.90
9385;DHT22;4732;49.340;10.886;2023-05-17T08:14:41;9.90;99.90
9385;DHT22;4732;49.340;10.886;2023-05-17T08:17:06;9.90;99.90
9385;DHT22;4732;49.340;10.886;2023-05-17T08:19:32;10.00;99.90
9385;DHT22;4732;49.340;10.886;2023-05-17T08:21:57;10.20;99.90
9385;DHT22;4732;49.340;10.886;2023-05-17T08:24:23;10.20;99.90
9385;DHT22;4732;49.340;10.886;2023-05-17T08:26:48;10.40;99.90
9385;DHT22;4732;49.340;10.886;2023-05-17T08:29:14;10.50;99.90
9385;DHT22;4732;49.340;10.886;2023-05-17T08:31:39;10.60;99.90
9385;DHT22;4732;49.340;10.886;2023-05-17T08:34:05;10.80;99.90
9385;DHT22;4732;49.340;10.886;2023-05-17T08:36:30;10.90;99.90
9385;DHT22;4732;49.340;10.886;2023-05-17T08:38:56;10.90;99.90
9385;DHT22;4732;49.340;10.886;2023-05-17T08:41:21;10.90;99.90
9385;DHT22;4732;49.340;10.886;2023-05-17T08:43:50;10.90;99.90
9385;DHT22;4732;49.340;10.886;2023-05-17T08:46:18;10.90;99.90
9385;DHT22;4732;49.340;10.886;2023-05-17T08:48:48;11.00;99.90
9385;DHT22;4732;49.340;10.886;2023-05-17T08:51:16;11.10;99.90
9385;DHT22;4732;49.340;10.886;2023-05-17T08:53:42;11.30;99.90
9385;DHT22;4732;49.340;10.886;2023-05-17T08:56:11;11.30;99.90
9385;DHT22;4732;49.340;10.886;2023-05-17T08:58:39;11.50;99.90
9385;DHT22;4732;49.340;10.886;2023-05-17T09:01:07;11.60;99.90
9385;DHT22;4732;49.340;10.886;2023-05-17T09:03:34;11.70;99.90
9385;DHT22;4732;49.340;10.886;2023-05-17T09:06:00;11.70;99.90
9385;DHT22;4732;49.340;10.886;2023-05-17T09:08:27;11.60;99.90
9385;DHT22;4732;49.340;10.886;2023-05-17T09:10:54;11.70;99.90
9385;DHT22;4732;49.340;10.886;2023-05-17T09:13:23;11.60;99.90
9385;DHT22;4732;49.340;10.886;2023-05-17T09:15:49;11.70;99.90
9385;DHT22;4732;49.340;10.886;2023-05-17T09:18:14;11.90;99.90
9385;DHT22;4732;49.340;10.886;2023-05-17T09:20:41;12.10;99.90
9385;DHT22;4732;49.340;10.886;2023-05-17T09:23:08;12.10;99.90
9385;DHT22;4732;49.340;10.886;2023-05-17T09:25:47;12.10;99.90
9385;DHT22;4732;49.340;10.886;2023-05-17T09:28:13;12.10;99.90
9385;DHT22;4732;49.340;10.886;2023-05-17T09:30:39;12.10;99.90
9385;DHT22;4732;49.340;10.886;2023-05-17T09:33:07;12.00;99.90
9385;DHT22;4732;49.340;10.886;2023-05-17T09:35:34;11.90;99.90
9385;DHT22;4732;49.340;10.886;2023-05-17T09:38:04;11.90;99.90
9385;DHT22;4732;49.340;10.886;2023-05-17T09:40:30;11.70;99.90
9385;DHT22;4732;49.340;10.886;2023-05-17T09:42:57;11.70;99.90
9385;DHT22;4732;49.340;10.886;2023-05-17T09:45:23;11.70;99.90
9385;DHT22;4732;49.340;10.886;2023-05-17T09:47:50;11.60;99.90
9385;DHT22;4732;49.340;10.886;2023-05-17T09:50:17;11.60;99.90
9385;DHT22;4732;49.340;10.886;2023-05-17T09:52:43;11.60;99.90
9385;DHT22;4732;49.340;10.886;2023-05-17T09:55:09;11.70;99.90
9385;DHT22;4732;49.340;10.886;2023-05-17T09:57:37;11.80;99.90
9385;DHT22;4732;49.340;10.886;2023-05-17T10:00:03;11.90;99.90
9385;DHT22;4732;49.340;10.886;2023-05-17T10:02:38;12.00;99.90
9385;DHT22;4732;49.340;10.886;2023-05-17T10:05:11;12.10;99.90
9385;DHT22;4732;49.340;10.886;2023-05-17T10:07:37;12.10;99.90
9385;DHT22;4732;49.340;10.886;2023-05-17T10:10:04;12.00;99.90
9385;DHT22;4732;49.340;10.886;2023-05-17T10:12:31;12.00;99.90
9385;DHT22;4732;49.340;10.886;2023-05-17T10:14:59;12.00;99.90
9385;DHT22;4732;49.340;10.886;2023-05-17T10:17:28;11.90;99.90
9385;DHT22;4732;49.340;10.886;2023-05-17T10:19:54;11.90;99.90
9385;DHT22;4732;49.340;10.886;2023-05-17T10:22:20;11.90;99.90
9385;DHT22;4732;49.340;10.886;2023-05-17T10:24:47;11.90;99.90
9385;DHT22;4732;49.340;10.886;2023-05-17T10:27:14;12.00;99.90
9385;DHT22;4732;49.340;10.886;2023-05-17T10:29:40;11.90;99.90
9385;DHT22;4732;49.340;10.886;2023-05-17T10:32:06;12.00;99.90
9385;DHT22;4732;49.340;10.886;2023-05-17T10:34:34;12.00;99.90
9385;DHT22;4732;49.340;10.886;2023-05-17T10:37:00;12.00;99.90
9385;DHT22;4732;49.340;10.886;2023-05-17T10:39:27;11.90;99.90
9385;DHT22;4732;49.340;10.886;2023-05-17T10:41:55;11.90;99.90
9385;DHT22;4732;49.340;10.886;2023-05-17T10:44:21;11.90;99.90
9385;DHT22;4732;49.340;10.886;2023-05-17T10:46:54;11.80;99.90
9385;DHT22;4732;49.340;10.886;2023-05-17T10:49:24;11.80;99.90
9385;DHT22;4732;49.340;10.886;2023-05-17T10:51:51;11.90;99.90
9385;DHT22;4732;49.340;10.886;2023-05-17T10:54:16;11.90;99.90
9385;DHT22;4732;49.340;10.886;2023-05-17T10:56:50;12.00;99.90
9385;DHT22;4732;49.340;10.886;2023-05-17T10:59:24;12.10;99.90
9385;DHT22;4732;49.340;10.886;2023-05-17T11:02:08;12.00;99.90
9385;DHT22;4732;49.340;10.886;2023-05-17T11:04:41;12.10;99.90
9385;DHT22;4732;49.340;10.886;2023-05-17T11:09:44;12.00;99.90
9385;DHT22;4732;49.340;10.886;2023-05-17T11:12:14;11.90;99.90
9385;DHT22;4732;49.340;10.886;2023-05-17T11:14:53;11.90;99.90
9385;DHT22;4732;49.340;10.886;2023-05-17T11:17:22;11.80;99.90
9385;DHT22;4732;49.340;10.886;2023-05-17T11:22:42;11.70;99.90
9385;DHT22;4732;49.340;10.886;2023-05-17T11:25:10;11.70;99.90
9385;DHT22;4732;49.340;10.886;2023-05-17T11:27:58;11.70;99.90
9385;DHT22;4732;49.340;10.886;2023-05-17T11:30:25;11.70;99.90
9385;DHT22;4732;49.340;10.886;2023-05-17T11:33:03;11.80;99.90
9385;DHT22;4732;49.340;10.886;2023-05-17T11:35:32;11.80;99.90
9385;DHT22;4732;49.340;10.886;2023-05-17T11:38:18;11.70;99.90
9385;DHT22;4732;49.340;10.886;2023-05-17T11:40:54;11.70;99.90
9385;DHT22;4732;49.340;10.886;2023-05-17T11:43:24;11.70;99.90
9385;DHT22;4732;49.340;10.886;2023-05-17T11:45:52;11.70;99.90
9385;DHT22;4732;49.340;10.886;2023-05-17T11:48:20;11.70;99.90
9385;DHT22;4732;49.340;10.886;2023-05-17T11:50:48;11.60;99.90
9385;DHT22;4732;49.340;10.886;2023-05-17T11:53:14;11.60;99.90
9385;DHT22;4732;49.340;10.886;2023-05-17T11:55:42;11.50;99.90
9385;DHT22;4732;49.340;10.886;2023-05-17T11:58:12;11.40;99.90
9385;DHT22;4732;49.340;10.886;2023-05-17T12:00:38;11.40;99.90
9385;DHT22;4732;49.340;10.886;2023-05-17T12:03:16;11.30;99.90
9385;DHT22;4732;49.340;10.886;2023-05-17T12:05:42;11.30;99.90
9385;DHT22;4732;49.340;10.886;2023-05-17T12:08:08;11.20;99.90
9385;DHT22;4732;49.340;10.886;2023-05-17T12:10:34;11.20;99.90
9385;DHT22;4732;49.340;10.886;2023-05-17T12:13:00;11.20;99.90
9385;DHT22;4732;49.340;10.886;2023-05-17T12:15:27;11.10;99.90
9385;DHT22;4732;49.340;10.886;2023-05-17T12:17:54;11.20;99.90
9385;DHT22;4732;49.340;10.886;2023-05-17T12:20:19;11.20;99.90
9385;DHT22;4732;49.340;10.886;2023-05-17T12:22:55;11.20;99.90
9385;DHT22;4732;49.340;10.886;2023-05-17T12:25:21;11.20;99.90
9385;DHT22;4732;49.340;10.886;2023-05-17T12:27:50;11.40;99.90
9385;DHT22;4732;49.340;10.886;2023-05-17T12:30:16;11.50;99.90
9385;DHT22;4732;49.340;10.886;2023-05-17T12:32:42;11.50;99.90
9385;DHT22;4732;49.340;10.886;2023-05-17T12:35:08;11.50;99.90
9385;DHT22;4732;49.340;10.886;2023-05-17T12:37:35;11.60;99.90
9385;DHT22;4732;49.340;10.886;2023-05-17T12:40:00;11.60;99.90
9385;DHT22;4732;49.340;10.886;2023-05-17T12:42:30;11.70;99.90
9385;DHT22;4732;49.340;10.886;2023-05-17T12:44:58;11.70;99.90
9385;DHT22;4732;49.340;10.886;2023-05-17T12:47:30;11.80;99.90
9385;DHT22;4732;49.340;10.886;2023-05-17T12:49:56;11.80;99.90
9385;DHT22;4732;49.340;10.886;2023-05-17T12:52:24;11.80;99.90
9385;DHT22;4732;49.340;10.886;2023-05-17T12:54:49;11.90;99.90
9385;DHT22;4732;49.340;10.886;2023-05-17T12:57:16;12.00;99.90
9385;DHT22;4732;49.340;10.886;2023-05-17T12:59:47;12.00;99.90
9385;DHT22;4732;49.340;10.886;2023-05-17T13:02:13;12.00;99.90
9385;DHT22;4732;49.340;10.886;2023-05-17T13:04:39;12.10;99.90
9385;DHT22;4732;49.340;10.886;2023-05-17T13:07:05;12.10;99.90
9385;DHT22;4732;49.340;10.886;2023-05-17T13:09:31;12.20;99.90
9385;DHT22;4732;49.340;10.886;2023-05-17T13:12:01;12.30;99.90
9385;DHT22;4732;49.340;10.886;2023-05-17T13:14:46;12.30;99.90
9385;DHT22;4732;49.340;10.886;2023-05-17T13:17:17;12.50;99.90
9385;DHT22;4732;49.340;10.886;2023-05-17T13:19:45;12.50;99.90
9385;DHT22;4732;49.340;10.886;2023-05-17T13:22:10;12.60;99.90
9385;DHT22;4732;49.340;10.886;2023-05-17T13:24:37;12.60;99.90
9385;DHT22;4732;49.340;10.886;2023-05-17T13:27:05;12.50;99.90
9385;DHT22;4732;49.340;10.886;2023-05-17T13:29:32;12.40;99.90
9385;DHT22;4732;49.340;10.886;2023-05-17T13:31:58;12.40;99.90
9385;DHT22;4732;49.340;10.886;2023-05-17T13:34:24;12.30;99.90
9385;DHT22;4732;49.340;10.886;2023-05-17T13:36:49;12.20;99.90
9385;DHT22;4732;49.340;10.886;2023-05-17T13:39:15;12.20;99.90
9385;DHT22;4732;49.340;10.886;2023-05-17T13:41:41;12.20;99.90
9385;DHT22;4732;49.340;10.886;2023-05-17T13:44:08;12.10;99.90
9385;DHT22;4732;49.340;10.886;2023-05-17T13:46:33;12.10;99.90
9385;DHT22;4732;49.340;10.886;2023-05-17T13:48:59;12.10;99.90
9385;DHT22;4732;49.340;10.886;2023-05-17T13:51:26;12.10;99.90
9385;DHT22;4732;49.340;10.886;2023-05-17T13:53:52;12.10;99.90
9385;DHT22;4732;49.340;10.886;2023-05-17T13:56:18;12.10;99.90
9385;DHT22;4732;49.340;10.886;2023-05-17T13:58:44;12.20;99.90
9385;DHT22;4732;49.340;10.886;2023-05-17T14:01:09;12.30;99.90
9385;DHT22;4732;49.340;10.886;2023-05-17T14:03:35;12.30;99.90
9385;DHT22;4732;49.340;10.886;2023-05-17T14:06:04;12.50;99.90
9385;DHT22;4732;49.340;10.886;2023-05-17T14:08:30;12.60;99.90
9385;DHT22;4732;49.340;10.886;2023-05-17T14:10:55;12.70;99.90
9385;DHT22;4732;49.340;10.886;2023-05-17T14:13:21;12.80;99.90
9385;DHT22;4732;49.340;10.886;2023-05-17T14:15:46;12.90;99.90
9385;DHT22;4732;49.340;10.886;2023-05-17T14:18:12;12.90;99.90
9385;DHT22;4732;49.340;10.886;2023-05-17T14:20:38;13.00;99.90
9385;DHT22;4732;49.340;10.886;2023-05-17T14:23:03;13.00;99.90
9385;DHT22;4732;49.340;10.886;2023-05-17T14:25:29;13.10;99.90
9385;DHT22;4732;49.340;10.886;2023-05-17T14:27:54;13.10;99.90
9385;DHT22;4732;49.340;10.886;2023-05-17T14:30:20;13.10;99.90
9385;DHT22;4732;49.340;10.886;2023-05-17T14:32:45;13.00;99.90
9385;DHT22;4732;49.340;10.886;2023-05-17T14:35:11;13.00;99.90
9385;DHT22;4732;49.340;10.886;2023-05-17T14:37:37;13.00;99.90
9385;DHT22;4732;49.340;10.886;2023-05-17T14:40:04;13.00;99.90
9385;DHT22;4732;49.340;10.886;2023-05-17T14:42:30;13.00;99.90
9385;DHT22;4732;49.340;10.886;2023-05-17T14:44:56;13.00;99.90
9385;DHT22;4732;49.340;10.886;2023-05-17T14:47:21;13.00;99.90
9385;DHT22;4732;49.340;10.886;2023-05-17T14:49:47;13.00;99.90
9385;DHT22;4732;49.340;10.886;2023-05-17T14:52:13;13.10;99.90
9385;DHT22;4732;49.340;10.886;2023-05-17T14:54:39;13.30;99.90
9385;DHT22;4732;49.340;10.886;2023-05-17T14:57:05;13.80;99.90
9385;DHT22;4732;49.340;10.886;2023-05-17T14:59:31;14.10;99.90
9385;DHT22;4732;49.340;10.886;2023-05-17T15:01:56;14.10;99.90
9385;DHT22;4732;49.340;10.886;2023-05-17T15:04:22;13.90;99.90
9385;DHT22;4732;49.340;10.886;2023-05-17T15:06:48;13.90;99.90
9385;DHT22;4732;49.340;10.886;2023-05-17T15:09:16;13.60;99.90
9385;DHT22;4732;49.340;10.886;2023-05-17T15:11:42;13.40;99.90
9385;DHT22;4732;49.340;10.886;2023-05-17T15:14:09;13.50;99.90
9385;DHT22;4732;49.340;10.886;2023-05-17T15:16:34;13.60;99.90
9385;DHT22;4732;49.340;10.886;2023-05-17T15:19:00;13.80;99.90
9385;DHT22;4732;49.340;10.886;2023-05-17T15:21:26;14.10;99.90
9385;DHT22;4732;49.340;10.886;2023-05-17T15:23:52;14.30;99.90
9385;DHT22;4732;49.340;10.886;2023-05-17T15:26:17;14.40;99.90
9385;DHT22;4732;49.340;10.886;2023-05-17T15:28:43;14.50;99.90
9385;DHT22;4732;49.340;10.886;2023-05-17T15:31:08;14.30;99.90
9385;DHT22;4732;49.340;10.886;2023-05-17T15:33:38;14.20;99.90
9385;DHT22;4732;49.340;10.886;2023-05-17T15:36:05;14.40;99.90
9385;DHT22;4732;49.340;10.886;2023-05-17T15:38:31;14.90;99.90
9385;DHT22;4732;49.340;10.886;2023-05-17T15:41:02;15.10;99.90
9385;DHT22;4732;49.340;10.886;2023-05-17T15:43:32;15.30;99.90
9385;DHT22;4732;49.340;10.886;2023-05-17T15:45:57;15.60;99.90
9385;DHT22;4732;49.340;10.886;2023-05-17T15:48:23;15.70;99.90
9385;DHT22;4732;49.340;10.886;2023-05-17T15:50:55;15.80;99.90
9385;DHT22;4732;49.340;10.886;2023-05-17T15:53:22;15.80;99.90
9385;DHT22;4732;49.340;10.886;2023-05-17T15:55:47;15.80;99.90
9385;DHT22;4732;49.340;10.886;2023-05-17T15:58:20;15.70;99.90
9385;DHT22;4732;49.340;10.886;2023-05-17T16:00:46;15.50;99.90
9385;DHT22;4732;49.340;10.886;2023-05-17T16:03:12;15.30;99.90
9385;DHT22;4732;49.340;10.886;2023-05-17T16:05:38;15.10;99.90
9385;DHT22;4732;49.340;10.886;2023-05-17T16:08:05;15.00;99.90
9385;DHT22;4732;49.340;10.886;2023-05-17T16:10:31;14.70;99.90
9385;DHT22;4732;49.340;10.886;2023-05-17T16:12:57;14.80;99.90
9385;DHT22;4732;49.340;10.886;2023-05-17T16:15:23;14.80;99.90
9385;DHT22;4732;49.340;10.886;2023-05-17T16:17:48;15.00;99.90
9385;DHT22;4732;49.340;10.886;2023-05-17T16:20:16;14.90;99.90
9385;DHT22;4732;49.340;10.886;2023-05-17T16:22:43;14.80;99.90
9385;DHT22;4732;49.340;10.886;2023-05-17T16:25:16;14.70;99.90
9385;DHT22;4732;49.340;10.886;2023-05-17T16:27:43;15.00;99.90
9385;DHT22;4732;49.340;10.886;2023-05-17T16:30:09;15.10;99.90
9385;DHT22;4732;49.340;10.886;2023-05-17T16:32:34;15.20;99.90
9385;DHT22;4732;49.340;10.886;2023-05-17T16:35:00;15.10;99.90
9385;DHT22;4732;49.340;10.886;2023-05-17T16:37:26;15.10;99.90
9385;DHT22;4732;49.340;10.886;2023-05-17T16:39:52;15.00;99.90
9385;DHT22;4732;49.340;10.886;2023-05-17T16:42:20;15.10;99.90
9385;DHT22;4732;49.340;10.886;2023-05-17T16:44:46;15.00;99.90
9385;DHT22;4732;49.340;10.886;2023-05-17T16:47:11;14.80;99.90
9385;DHT22;4732;49.340;10.886;2023-05-17T16:49:37;14.70;99.90
9385;DHT22;4732;49.340;10.886;2023-05-17T16:52:03;14.60;99.90
9385;DHT22;4732;49.340;10.886;2023-05-17T16:54:29;14.50;99.90
9385;DHT22;4732;49.340;10.886;2023-05-17T16:56:56;14.30;99.90
9385;DHT22;4732;49.340;10.886;2023-05-17T16:59:21;14.20;99.90
9385;DHT22;4732;49.340;10.886;2023-05-17T17:01:47;14.20;99.90
9385;DHT22;4732;49.340;10.886;2023-05-17T17:04:12;14.20;99.90
9385;DHT22;4732;49.340;10.886;2023-05-17T17:06:38;14.20;99.90
9385;DHT22;4732;49.340;10.886;2023-05-17T17:09:03;14.30;99.90
9385;DHT22;4732;49.340;10.886;2023-05-17T17:11:30;14.20;99.90
9385;DHT22;4732;49.340;10.886;2023-05-17T17:13:56;13.90;99.90
9385;DHT22;4732;49.340;10.886;2023-05-17T17:16:21;13.90;99.90
9385;DHT22;4732;49.340;10.886;2023-05-17T17:18:47;13.80;99.90
9385;DHT22;4732;49.340;10.886;2023-05-17T17:21:14;13.80;99.90
9385;DHT22;4732;49.340;10.886;2023-05-17T17:23:40;13.80;99.90
9385;DHT22;4732;49.340;10.886;2023-05-17T17:26:06;13.80;99.90
9385;DHT22;4732;49.340;10.886;2023-05-17T17:28:36;13.80;99.90
9385;DHT22;4732;49.340;10.886;2023-05-17T17:31:01;13.60;99.90
9385;DHT22;4732;49.340;10.886;2023-05-17T17:33:27;13.60;99.90
9385;DHT22;4732;49.340;10.886;2023-05-17T17:35:52;13.60;99.90
9385;DHT22;4732;49.340;10.886;2023-05-17T17:38:18;13.70;99.90
9385;DHT22;4732;49.340;10.886;2023-05-17T17:40:43;13.70;99.90
9385;DHT22;4732;49.340;10.886;2023-05-17T17:43:08;13.70;99.90
9385;DHT22;4732;49.340;10.886;2023-05-17T17:45:34;13.60;99.90
9385;DHT22;4732;49.340;10.886;2023-05-17T17:48:00;13.60;99.90
9385;DHT22;4732;49.340;10.886;2023-05-17T17:50:25;13.70;99.90
9385;DHT22;4732;49.340;10.886;2023-05-17T17:52:51;13.60;99.90
9385;DHT22;4732;49.340;10.886;2023-05-17T17:55:16;13.60;99.90
9385;DHT22;4732;49.340;10.886;2023-05-17T17:57:42;13.60;99.90
9385;DHT22;4732;49.340;10.886;2023-05-17T18:00:08;13.50;99.90
9385;DHT22;4732;49.340;10.886;2023-05-17T18:02:34;13.70;99.90
9385;DHT22;4732;49.340;10.886;2023-05-17T18:04:59;13.50;99.90
9385;DHT22;4732;49.340;10.886;2023-05-17T18:07:25;13.60;99.90
9385;DHT22;4732;49.340;10.886;2023-05-17T18:09:51;13.50;99.90
9385;DHT22;4732;49.340;10.886;2023-05-17T18:12:17;13.60;99.90
9385;DHT22;4732;49.340;10.886;2023-05-17T18:14:42;13.60;99.90
9385;DHT22;4732;49.340;10.886;2023-05-17T18:17:08;13.60;99.90
9385;DHT22;4732;49.340;10.886;2023-05-17T18:19:34;13.50;99.90
9385;DHT22;4732;49.340;10.886;2023-05-17T18:22:00;13.30;99.90
9385;DHT22;4732;49.340;10.886;2023-05-17T18:24:25;13.30;99.90
9385;DHT22;4732;49.340;10.886;2023-05-17T18:26:51;13.30;99.90
9385;DHT22;4732;49.340;10.886;2023-05-17T18:29:16;13.30;99.90
9385;DHT22;4732;49.340;10.886;2023-05-17T18:31:42;13.20;99.90
9385;DHT22;4732;49.340;10.886;2023-05-17T18:34:08;13.20;99.90
9385;DHT22;4732;49.340;10.886;2023-05-17T18:36:33;13.20;99.90
9385;DHT22;4732;49.340;10.886;2023-05-17T18:38:59;13.10;99.90
9385;DHT22;4732;49.340;10.886;2023-05-17T18:41:25;13.10;99.90
9385;DHT22;4732;49.340;10.886;2023-05-17T18:43:51;13.10;99.90
9385;DHT22;4732;49.340;10.886;2023-05-17T18:46:16;12.80;99.90
9385;DHT22;4732;49.340;10.886;2023-05-17T18:48:42;12.80;99.90
9385;DHT22;4732;49.340;10.886;2023-05-17T18:51:08;12.80;99.90
9385;DHT22;4732;49.340;10.886;2023-05-17T18:53:33;12.70;99.90